Time,TemperatureF,DewpointF,PressureIn,WindDirection,WindDirectionDegrees,WindSpeedMPH,WindSpeedGustMPH,Humidity,HourlyPrecipIn,Conditions,Clouds,dailyrainin,SoftwareType,DateUTC
2013-01-08 00:00:00,34.8,34.8,29.79,West,269,0.0,0.0,100,0.00,,,0.00,Wunderground v.1.12,2013-01-08 07:00:00,
2013-01-08 00:05:00,35.0,35.0,29.80,SW,233,3.0,3.0,100,0.00,,,0.00,Wunderground v.1.12,2013-01-08 07:05:00,
2013-01-08 00:10:00,34.8,34.8,29.79,WSW,245,4.0,4.0,100,0.00,,,0.00,Wunderground v.1.12,2013-01-08 07:10:00,
2013-01-08 00:15:00,34.8,34.8,29.80,WSW,245,0.0,0.0,100,0.00,,,0.00,Wunderground v.1.12,2013-01-08 07:15:00,
2013-01-08 00:25:00,34.8,34.8,29.80,West,262,1.0,1.0,100,0.00,,,0.00,Wunderground v.1.12,2013-01-08 07:25:00,
2013-01-08 00:30:00,35.1,35.1,29.80,West,273,0.0,0.0,100,0.00,,,0.00,Wunderground v.1.12,2013-01-08 07:30:00,
2013-01-08 00:35:00,35.1,35.1,29.80,West,276,0.0,0.0,100,0.00,,,0.00,Wunderground v.1.12,2013-01-08 07:35:00,
2013-01-08 00:40:00,35.3,35.3,29.81,West,281,0.0,0.0,100,0.00,,,0.00,Wunderground v.1.12,2013-01-08 07:40:00,
2013-01-08 00:45:00,35.0,35.0,29.81,WNW,283,0.0,0.0,100,0.00,,,0.00,Wunderground v.1.12,2013-01-08 07:45:00,
2013-01-08 00:50:00,34.7,34.7,29.82,WNW,284,0.0,0.0,100,0.00,,,0.00,Wunderground v.1.12,2013-01-08 07:50:00,
2013-01-08 01:00:00,34.8,34.8,29.82,WNW,282,0.0,0.0,100,0.00,,,0.00,Wunderground v.1.12,2013-01-08 08:00:00,
2013-01-08 01:05:00,34.8,34.8,29.82,WNW,288,0.0,0.0,100,0.00,,,0.00,Wunderground v.1.12,2013-01-08 08:05:00,
2013-01-08 01:15:00,34.9,34.9,29.82,WNW,288,4.0,4.0,100,0.00,,,0.00,Wunderground v.1.12,2013-01-08 08:15:00,
2013-01-08 01:20:00,34.9,34.9,29.83,WNW,299,3.0,3.0,100,0.00,,,0.00,Wunderground v.1.12,2013-01-08 08:20:00,
2013-01-08 01:25:00,34.7,34.7,29.83,WNW,293,0.0,0.0,100,0.00,,,0.00,Wunderground v.1.12,2013-01-08 08:25:00,
2013-01-08 01:30:00,35.0,35.0,29.83,WNW,286,5.0,5.0,100,0.00,,,0.00,Wunderground v.1.12,2013-01-08 08:30:00,
2013-01-08 01:35:00,34.9,34.9,29.83,WNW,292,0.0,0.0,100,0.00,,,0.00,Wunderground v.1.12,2013-01-08 08:35:00,
2013-01-08 01:40:00,34.6,34.6,29.83,WNW,288,2.0,2.0,100,0.00,,,0.00,Wunderground v.1.12,2013-01-08 08:40:00,
2013-01-08 01:45:00,34.6,34.6,29.83,West,280,0.0,0.0,100,0.00,,,0.00,Wunderground v.1.12,2013-01-08 08:45:00,
2013-01-08 01:50:00,34.8,34.8,29.84,WNW,283,7.0,7.0,100,0.00,,,0.00,Wunderground v.1.12,2013-01-08 08:50:00,
2013-01-08 02:00:00,34.9,34.9,29.84,WNW,290,0.0,0.0,100,0.00,,,0.00,Wunderground v.1.12,2013-01-08 09:00:00,
2013-01-08 02:05:00,34.7,34.7,29.85,WNW,288,4.0,4.0,100,0.00,,,0.00,Wunderground v.1.12,2013-01-08 09:05:00,
2013-01-08 02:10:00,34.6,34.6,29.85,WNW,291,0.0,0.0,100,0.00,,,0.00,Wunderground v.1.12,2013-01-08 09:10:00,
2013-01-08 02:15:00,34.7,34.7,29.85,West,279,0.0,0.0,100,0.00,,,0.00,Wunderground v.1.12,2013-01-08 09:15:00,
2013-01-08 02:20:00,34.9,34.6,29.85,WNW,288,0.0,0.0,99,0.00,,,0.00,Wunderground v.1.12,2013-01-08 09:20:00,
2013-01-08 02:25:00,34.6,34.3,29.86,WNW,289,3.0,3.0,99,0.00,,,0.00,Wunderground v.1.12,2013-01-08 09:25:00,
2013-01-08 02:30:00,34.8,34.5,29.86,WNW,293,0.0,0.0,99,0.00,,,0.00,Wunderground v.1.12,2013-01-08 09:30:00,
2013-01-08 02:35:00,34.5,34.2,29.86,WNW,289,0.0,0.0,99,0.00,,,0.00,Wunderground v.1.12,2013-01-08 09:35:00,
2013-01-08 02:40:00,34.4,34.1,29.86,WNW,293,0.0,0.0,99,0.00,,,0.00,Wunderground v.1.12,2013-01-08 09:40:00,
2013-01-08 02:45:00,34.3,34.0,29.86,WNW,289,0.0,0.0,99,0.00,,,0.00,Wunderground v.1.12,2013-01-08 09:45:00,
2013-01-08 02:50:00,34.3,34.0,29.86,WNW,289,0.0,0.0,99,0.00,,,0.00,Wunderground v.1.12,2013-01-08 09:50:00,
2013-01-08 03:00:00,34.2,33.7,29.86,WNW,285,0.0,0.0,98,0.00,,,0.00,Wunderground v.1.12,2013-01-08 10:00:00,
2013-01-08 03:05:00,34.1,33.3,29.86,WNW,287,0.0,0.0,97,0.00,,,0.00,Wunderground v.1.12,2013-01-08 10:05:00,
2013-01-08 03:10:00,34.2,33.4,29.87,West,281,3.0,3.0,97,0.00,,,0.00,Wunderground v.1.12,2013-01-08 10:10:00,
2013-01-08 03:15:00,34.1,33.3,29.87,WNW,288,0.0,0.0,97,0.00,,,0.00,Wunderground v.1.12,2013-01-08 10:15:00,
2013-01-08 03:20:00,34.1,33.6,29.86,WNW,286,1.0,1.0,98,0.00,,,0.00,Wunderground v.1.12,2013-01-08 10:20:00,
2013-01-08 03:25:00,33.9,33.4,29.87,WNW,285,0.0,0.0,98,0.00,,,0.00,Wunderground v.1.12,2013-01-08 10:25:00,
2013-01-08 03:30:00,34.3,33.8,29.87,WNW,286,4.0,4.0,98,0.00,,,0.00,Wunderground v.1.12,2013-01-08 10:30:00,
2013-01-08 03:35:00,34.0,33.2,29.87,WNW,294,0.0,0.0,97,0.00,,,0.00,Wunderground v.1.12,2013-01-08 10:35:00,
2013-01-08 03:40:00,34.1,33.3,29.87,WNW,299,0.0,0.0,97,0.00,,,0.00,Wunderground v.1.12,2013-01-08 10:40:00,
2013-01-08 03:45:00,34.0,33.5,29.87,WNW,298,0.0,0.0,98,0.00,,,0.00,Wunderground v.1.12,2013-01-08 10:45:00,
2013-01-08 03:50:00,34.2,33.7,29.88,WNW,298,0.0,0.0,98,0.00,,,0.00,Wunderground v.1.12,2013-01-08 10:50:00,
2013-01-08 03:55:00,34.0,33.2,29.88,WNW,302,0.0,0.0,97,0.00,,,0.00,Wunderground v.1.12,2013-01-08 10:55:00,
2013-01-08 04:05:00,34.0,33.2,29.88,WNW,293,1.0,8.0,97,0.00,,,0.00,Wunderground v.1.12,2013-01-08 11:05:00,
2013-01-08 04:10:00,33.9,32.6,29.89,WNW,298,0.0,0.0,95,0.00,,,0.00,Wunderground v.1.12,2013-01-08 11:10:00,
2013-01-08 04:15:00,33.7,32.4,29.89,WNW,297,3.0,3.0,95,0.00,,,0.00,Wunderground v.1.12,2013-01-08 11:15:00,
2013-01-08 04:20:00,33.7,32.4,29.90,NW,307,0.0,0.0,95,0.00,,,0.00,Wunderground v.1.12,2013-01-08 11:20:00,
2013-01-08 04:25:00,33.4,31.9,29.89,West,278,0.0,0.0,94,0.00,,,0.00,Wunderground v.1.12,2013-01-08 11:25:00,
2013-01-08 04:35:00,33.7,32.2,29.90,WNW,295,0.0,0.0,94,0.00,,,0.00,Wunderground v.1.12,2013-01-08 11:35:00,
2013-01-08 04:40:00,33.5,31.7,29.89,WNW,294,2.0,2.0,93,0.00,,,0.00,Wunderground v.1.12,2013-01-08 11:40:00,
2013-01-08 04:45:00,33.6,31.5,29.89,WNW,294,3.0,3.0,92,0.00,,,0.00,Wunderground v.1.12,2013-01-08 11:45:00,
2013-01-08 04:50:00,33.5,30.9,29.90,WNW,289,0.0,0.0,90,0.00,,,0.00,Wunderground v.1.12,2013-01-08 11:50:00,
2013-01-08 04:55:00,33.7,30.8,29.90,WNW,296,0.0,0.0,89,0.00,,,0.00,Wunderground v.1.12,2013-01-08 11:55:00,
2013-01-08 05:00:00,33.4,30.2,29.90,WNW,296,0.0,0.0,88,0.00,,,0.00,Wunderground v.1.12,2013-01-08 12:00:00,
2013-01-08 05:05:00,33.6,30.4,29.91,WNW,303,0.0,0.0,88,0.00,,,0.00,Wunderground v.1.12,2013-01-08 12:05:00,
2013-01-08 05:10:00,33.5,30.6,29.91,NW,308,0.0,0.0,89,0.00,,,0.00,Wunderground v.1.12,2013-01-08 12:10:00,
2013-01-08 05:15:00,33.1,30.2,29.91,NW,308,2.0,2.0,89,0.00,,,0.00,Wunderground v.1.12,2013-01-08 12:15:00,
2013-01-08 05:20:00,33.1,29.7,29.91,SW,219,0.0,0.0,87,0.00,,,0.00,Wunderground v.1.12,2013-01-08 12:20:00,
2013-01-08 05:25:00,32.8,29.6,29.92,ENE,73,0.0,0.0,88,0.00,,,0.00,Wunderground v.1.12,2013-01-08 12:25:00,
2013-01-08 05:35:00,32.5,29.3,29.92,WNW,300,0.0,0.0,88,0.00,,,0.00,Wunderground v.1.12,2013-01-08 12:35:00,
2013-01-08 05:45:00,33.0,29.0,29.92,NNE,32,0.0,0.0,85,0.00,,,0.00,Wunderground v.1.12,2013-01-08 12:45:00,
2013-01-08 05:50:00,33.1,28.8,29.93,WNW,291,0.0,0.0,84,0.00,,,0.00,Wunderground v.1.12,2013-01-08 12:50:00,
2013-01-08 06:00:00,33.0,28.7,29.94,WNW,301,0.0,0.0,84,0.00,,,0.00,Wunderground v.1.12,2013-01-08 13:00:00,
2013-01-08 06:10:00,33.0,28.1,29.95,NW,309,0.0,0.0,82,0.00,,,0.00,Wunderground v.1.12,2013-01-08 13:10:00,
2013-01-08 06:15:00,32.6,28.0,29.95,NNW,347,0.0,0.0,83,0.00,,,0.00,Wunderground v.1.12,2013-01-08 13:15:00,
2013-01-08 06:25:00,32.2,27.6,29.95,NW,322,0.0,0.0,83,0.00,,,0.00,Wunderground v.1.12,2013-01-08 13:25:00,
2013-01-08 06:35:00,32.5,27.6,29.95,NNW,340,0.0,0.0,82,0.00,,,0.00,Wunderground v.1.12,2013-01-08 13:35:00,
2013-01-08 06:40:00,32.4,27.5,29.95,NNW,337,0.0,0.0,82,0.00,,,0.00,Wunderground v.1.12,2013-01-08 13:40:00,
2013-01-08 06:45:00,32.3,27.1,29.95,NNW,338,5.0,5.0,81,0.00,,,0.00,Wunderground v.1.12,2013-01-08 13:45:00,
2013-01-08 06:50:00,32.3,26.8,29.96,WSW,255,0.0,0.0,80,0.00,,,0.00,Wunderground v.1.12,2013-01-08 13:50:00,
2013-01-08 06:55:00,32.3,26.5,29.96,NNW,341,0.0,0.0,79,0.00,,,0.00,Wunderground v.1.12,2013-01-08 13:55:00,
2013-01-08 07:00:00,32.4,26.9,29.96,NNW,341,0.0,0.0,80,0.00,,,0.00,Wunderground v.1.12,2013-01-08 14:00:00,
2013-01-08 07:10:00,31.7,26.2,29.97,NNW,344,0.0,0.0,80,0.00,,,0.00,Wunderground v.1.12,2013-01-08 14:10:00,
2013-01-08 07:15:00,31.8,26.3,29.97,NNW,340,0.0,0.0,80,0.00,,,0.00,Wunderground v.1.12,2013-01-08 14:15:00,
2013-01-08 07:20:00,31.8,26.0,29.98,NNW,344,1.0,1.0,79,0.00,,,0.00,Wunderground v.1.12,2013-01-08 14:20:00,
2013-01-08 07:25:00,31.8,26.0,29.98,NNW,344,0.0,0.0,79,0.00,,,0.00,Wunderground v.1.12,2013-01-08 14:25:00,
2013-01-08 07:30:00,31.6,25.5,29.98,NNW,345,0.0,0.0,78,0.00,,,0.00,Wunderground v.1.12,2013-01-08 14:30:00,
2013-01-08 07:35:00,31.6,25.8,29.98,NE,45,0.0,0.0,79,0.00,,,0.00,Wunderground v.1.12,2013-01-08 14:35:00,
2013-01-08 07:40:00,31.6,26.1,29.98,NNW,346,0.0,0.0,80,0.00,,,0.00,Wunderground v.1.12,2013-01-08 14:40:00,
2013-01-08 07:45:00,31.2,27.2,29.98,NNW,338,0.0,3.0,85,0.00,,,0.00,Wunderground v.1.12,2013-01-08 14:45:00,
2013-01-08 07:50:00,31.1,26.5,29.99,North,351,0.0,0.0,83,0.00,,,0.00,Wunderground v.1.12,2013-01-08 14:50:00,
2013-01-08 07:55:00,31.0,26.7,29.99,NNW,346,0.0,0.0,84,0.00,,,0.00,Wunderground v.1.12,2013-01-08 14:55:00,
2013-01-08 08:00:00,30.4,26.4,29.99,NNW,348,0.0,0.0,85,0.00,,,0.00,Wunderground v.1.12,2013-01-08 15:00:00,
2013-01-08 08:05:00,30.1,26.4,30.00,North,349,0.0,0.0,86,0.00,,,0.00,Wunderground v.1.12,2013-01-08 15:05:00,
2013-01-08 08:15:00,30.2,26.5,30.00,North,350,0.0,0.0,86,0.00,,,0.00,Wunderground v.1.12,2013-01-08 15:15:00,
2013-01-08 08:20:00,29.9,26.5,30.00,NNW,347,0.0,0.0,87,0.00,,,0.00,Wunderground v.1.12,2013-01-08 15:20:00,
2013-01-08 08:25:00,29.9,26.8,30.01,East,94,0.0,0.0,88,0.00,,,0.00,Wunderground v.1.12,2013-01-08 15:25:00,
2013-01-08 08:30:00,29.9,26.8,30.01,East,94,0.0,0.0,88,0.00,,,0.00,Wunderground v.1.12,2013-01-08 15:30:00,
2013-01-08 08:35:00,29.4,26.3,30.01,East,94,0.0,0.0,88,0.00,,,0.00,Wunderground v.1.12,2013-01-08 15:35:00,
2013-01-08 08:40:00,29.1,26.3,30.02,East,94,0.0,0.0,89,0.00,,,0.00,Wunderground v.1.12,2013-01-08 15:40:00,
2013-01-08 08:50:00,29.3,26.5,30.03,East,94,0.0,0.0,89,0.00,,,0.00,Wunderground v.1.12,2013-01-08 15:50:00,
2013-01-08 08:55:00,29.3,26.5,30.03,East,94,0.0,0.0,89,0.00,,,0.00,Wunderground v.1.12,2013-01-08 15:55:00,
2013-01-08 09:00:00,28.9,26.1,30.03,East,94,0.0,0.0,89,0.00,,,0.00,Wunderground v.1.12,2013-01-08 16:00:00,
2013-01-08 09:05:00,29.3,26.7,30.04,East,94,0.0,0.0,90,0.00,,,0.00,Wunderground v.1.12,2013-01-08 16:05:00,
2013-01-08 09:10:00,28.7,25.9,30.04,East,94,0.0,0.0,89,0.00,,,0.00,Wunderground v.1.12,2013-01-08 16:10:00,
2013-01-08 09:20:00,29.0,26.4,30.04,East,94,0.0,0.0,90,0.00,,,0.00,Wunderground v.1.12,2013-01-08 16:20:00,
2013-01-08 09:25:00,29.0,26.4,30.04,East,95,0.0,0.0,90,0.00,,,0.00,Wunderground v.1.12,2013-01-08 16:25:00,
2013-01-08 09:30:00,28.8,26.2,30.04,East,95,0.0,0.0,90,0.00,,,0.00,Wunderground v.1.12,2013-01-08 16:30:00,
2013-01-08 09:35:00,29.0,26.4,30.04,East,95,0.0,0.0,90,0.00,,,0.00,Wunderground v.1.12,2013-01-08 16:35:00,
2013-01-08 09:40:00,29.1,26.5,30.04,ENE,75,0.0,0.0,90,0.00,,,0.00,Wunderground v.1.12,2013-01-08 16:40:00,
2013-01-08 09:45:00,29.2,26.1,30.04,SSE,149,0.0,0.0,88,0.00,,,0.00,Wunderground v.1.12,2013-01-08 16:45:00,
2013-01-08 09:55:00,29.1,26.0,30.05,SSE,151,0.0,0.0,88,0.00,,,0.00,Wunderground v.1.12,2013-01-08 16:55:00,
2013-01-08 10:00:00,29.4,26.3,30.05,SSE,151,0.0,0.0,88,0.00,,,0.00,Wunderground v.1.12,2013-01-08 17:00:00,
2013-01-08 10:05:00,29.5,26.7,30.05,SSE,151,0.0,0.0,89,0.00,,,0.00,Wunderground v.1.12,2013-01-08 17:05:00,
2013-01-08 10:10:00,29.6,26.5,30.05,SSE,152,0.0,0.0,88,0.00,,,0.00,Wunderground v.1.12,2013-01-08 17:10:00,
2013-01-08 10:15:00,29.9,27.1,30.05,SSE,151,0.0,0.0,89,0.00,,,0.00,Wunderground v.1.12,2013-01-08 17:15:00,
2013-01-08 10:25:00,30.5,27.4,30.06,SSE,151,0.0,0.0,88,0.00,,,0.00,Wunderground v.1.12,2013-01-08 17:25:00,
2013-01-08 10:30:00,30.9,27.2,30.06,SSE,151,0.0,0.0,86,0.00,,,0.00,Wunderground v.1.12,2013-01-08 17:30:00,
2013-01-08 10:35:00,30.9,27.5,30.06,SSE,151,0.0,0.0,87,0.00,,,0.00,Wunderground v.1.12,2013-01-08 17:35:00,
2013-01-08 10:40:00,31.1,28.0,30.06,SSE,151,0.0,0.0,88,0.00,,,0.00,Wunderground v.1.12,2013-01-08 17:40:00,
2013-01-08 10:45:00,30.8,27.4,30.06,SSE,151,0.0,0.0,87,0.00,,,0.00,Wunderground v.1.12,2013-01-08 17:45:00,
2013-01-08 10:55:00,31.4,28.3,30.06,SSE,151,0.0,0.0,88,0.00,,,0.00,Wunderground v.1.12,2013-01-08 17:55:00,
2013-01-08 11:00:00,31.4,28.3,30.06,SSE,151,0.0,0.0,88,0.00,,,0.00,Wunderground v.1.12,2013-01-08 18:00:00,
2013-01-08 11:05:00,31.6,28.7,30.06,SSE,151,0.0,0.0,89,0.00,,,0.00,Wunderground v.1.12,2013-01-08 18:05:00,
2013-01-08 11:10:00,31.5,27.8,30.06,SSE,151,0.0,0.0,86,0.00,,,0.00,Wunderground v.1.12,2013-01-08 18:10:00,
2013-01-08 11:15:00,31.8,28.4,30.06,SSE,151,0.0,0.0,87,0.00,,,0.00,Wunderground v.1.12,2013-01-08 18:15:00,
2013-01-08 11:20:00,31.9,28.2,30.06,SSE,151,0.0,0.0,86,0.00,,,0.00,Wunderground v.1.12,2013-01-08 18:20:00,
2013-01-08 11:30:00,32.4,28.1,30.05,North,357,0.0,0.0,84,0.00,,,0.00,Wunderground v.1.12,2013-01-08 18:30:00,
2013-01-08 11:35:00,32.7,29.0,30.05,North,355,0.0,0.0,86,0.00,,,0.00,Wunderground v.1.12,2013-01-08 18:35:00,
2013-01-08 11:40:00,32.7,29.0,30.05,North,356,0.0,0.0,86,0.00,,,0.00,Wunderground v.1.12,2013-01-08 18:40:00,
2013-01-08 11:50:00,33.2,28.3,30.05,North,357,0.0,0.0,82,0.00,,,0.00,Wunderground v.1.12,2013-01-08 18:50:00,
2013-01-08 12:00:00,33.6,28.4,30.05,North,358,0.0,0.0,81,0.00,,,0.00,Wunderground v.1.12,2013-01-08 19:00:00,
2013-01-08 12:05:00,33.4,28.2,30.05,North,358,0.0,0.0,81,0.00,,,0.00,Wunderground v.1.12,2013-01-08 19:05:00,
2013-01-08 12:10:00,34.1,28.6,30.04,North,359,0.0,0.0,80,0.00,,,0.00,Wunderground v.1.12,2013-01-08 19:10:00,
2013-01-08 12:15:00,33.9,28.4,30.04,North,358,0.0,0.0,80,0.00,,,0.00,Wunderground v.1.12,2013-01-08 19:15:00,
2013-01-08 12:20:00,34.3,28.5,30.04,North,358,0.0,0.0,79,0.00,,,0.00,Wunderground v.1.12,2013-01-08 19:20:00,
2013-01-08 12:30:00,34.6,28.4,30.04,North,359,0.0,0.0,78,0.00,,,0.00,Wunderground v.1.12,2013-01-08 19:30:00,
2013-01-08 12:35:00,34.5,28.3,30.04,North,0,0.0,0.0,78,0.00,,,0.00,Wunderground v.1.12,2013-01-08 19:35:00,
2013-01-08 12:40:00,34.8,29.0,30.04,North,0,0.0,0.0,79,0.00,,,0.00,Wunderground v.1.12,2013-01-08 19:40:00,
2013-01-08 12:45:00,35.0,29.1,30.04,North,359,0.0,0.0,79,0.00,,,0.00,Wunderground v.1.12,2013-01-08 19:45:00,
2013-01-08 12:55:00,35.2,29.0,30.04,SE,125,0.0,0.0,78,0.00,,,0.00,Wunderground v.1.12,2013-01-08 19:55:00,
2013-01-08 13:05:00,35.7,29.2,30.04,WSW,243,0.0,0.0,77,0.00,,,0.00,Wunderground v.1.12,2013-01-08 20:05:00,
2013-01-08 13:10:00,35.9,29.1,30.03,SE,139,0.0,0.0,76,0.00,,,0.00,Wunderground v.1.12,2013-01-08 20:10:00,
2013-01-08 13:15:00,36.0,29.2,30.03,SE,139,0.0,0.0,76,0.00,,,0.00,Wunderground v.1.12,2013-01-08 20:15:00,
2013-01-08 13:20:00,36.0,29.5,30.03,SE,139,0.0,0.0,77,0.00,,,0.00,Wunderground v.1.12,2013-01-08 20:20:00,
2013-01-08 13:25:00,36.4,29.6,30.03,North,0,0.0,0.0,76,0.00,,,0.00,Wunderground v.1.12,2013-01-08 20:25:00,
2013-01-08 13:35:00,36.2,28.7,30.03,SE,125,0.0,0.0,74,0.00,,,0.00,Wunderground v.1.12,2013-01-08 20:35:00,
2013-01-08 13:40:00,36.4,28.9,30.03,SE,125,0.0,0.0,74,0.00,,,0.00,Wunderground v.1.12,2013-01-08 20:40:00,
2013-01-08 13:50:00,36.8,29.3,30.03,SW,230,0.0,0.0,74,0.00,,,0.00,Wunderground v.1.12,2013-01-08 20:50:00,
2013-01-08 13:55:00,36.8,29.9,30.03,SW,230,0.0,0.0,76,0.00,,,0.00,Wunderground v.1.12,2013-01-08 20:55:00,
2013-01-08 14:00:00,37.2,30.3,30.03,SW,230,0.0,0.0,76,0.00,,,0.00,Wunderground v.1.12,2013-01-08 21:00:00,
2013-01-08 14:05:00,36.8,29.6,30.03,North,0,0.0,0.0,75,0.00,,,0.00,Wunderground v.1.12,2013-01-08 21:05:00,
2013-01-08 14:10:00,36.7,29.5,30.03,North,0,0.0,0.0,75,0.00,,,0.00,Wunderground v.1.12,2013-01-08 21:10:00,
2013-01-08 14:15:00,36.9,29.4,30.03,North,0,0.0,0.0,74,0.00,,,0.00,Wunderground v.1.12,2013-01-08 21:15:00,
2013-01-08 14:20:00,36.7,29.5,30.03,North,0,3.0,3.0,75,0.00,,,0.00,Wunderground v.1.12,2013-01-08 21:20:00,
2013-01-08 14:25:00,36.6,29.7,30.03,North,0,0.0,0.0,76,0.00,,,0.00,Wunderground v.1.12,2013-01-08 21:25:00,
2013-01-08 14:30:00,36.3,30.1,30.03,North,358,0.0,0.0,78,0.00,,,0.00,Wunderground v.1.12,2013-01-08 21:30:00,
2013-01-08 14:40:00,35.9,30.0,30.03,North,0,0.0,0.0,79,0.00,,,0.00,Wunderground v.1.12,2013-01-08 21:40:00,
2013-01-08 14:45:00,36.2,30.3,30.03,North,0,0.0,0.0,79,0.00,,,0.00,Wunderground v.1.12,2013-01-08 21:45:00,
2013-01-08 14:50:00,36.4,30.5,30.03,North,0,0.0,0.0,79,0.00,,,0.00,Wunderground v.1.12,2013-01-08 21:50:00,
2013-01-08 14:55:00,36.2,30.3,30.03,North,0,0.0,0.0,79,0.00,,,0.00,Wunderground v.1.12,2013-01-08 21:55:00,
2013-01-08 15:00:00,36.1,30.2,30.03,North,0,0.0,0.0,79,0.00,,,0.00,Wunderground v.1.12,2013-01-08 22:00:00,
2013-01-08 15:10:00,36.3,30.4,30.03,North,0,0.0,0.0,79,0.00,,,0.00,Wunderground v.1.12,2013-01-08 22:10:00,
2013-01-08 15:15:00,36.3,30.4,30.03,North,0,0.0,0.0,79,0.00,,,0.00,Wunderground v.1.12,2013-01-08 22:15:00,
2013-01-08 15:20:00,36.2,30.6,30.02,North,0,0.0,0.0,80,0.00,,,0.00,Wunderground v.1.12,2013-01-08 22:20:00,
2013-01-08 15:25:00,36.5,30.9,30.02,North,0,0.0,0.0,80,0.00,,,0.00,Wunderground v.1.12,2013-01-08 22:25:00,
2013-01-08 15:35:00,36.3,30.7,30.02,North,0,0.0,0.0,80,0.00,,,0.00,Wunderground v.1.12,2013-01-08 22:35:00,
2013-01-08 15:45:00,35.9,30.6,30.03,North,0,0.0,0.0,81,0.00,,,0.00,Wunderground v.1.12,2013-01-08 22:45:00,
2013-01-08 15:50:00,35.8,30.5,30.02,North,0,0.0,0.0,81,0.00,,,0.00,Wunderground v.1.12,2013-01-08 22:50:00,
2013-01-08 15:55:00,35.7,30.4,30.03,North,0,0.0,0.0,81,0.00,,,0.00,Wunderground v.1.12,2013-01-08 22:55:00,
2013-01-08 16:00:00,35.3,30.4,30.03,North,0,0.0,0.0,82,0.00,,,0.00,Wunderground v.1.12,2013-01-08 23:00:00,
2013-01-08 16:05:00,35.3,30.7,30.03,North,0,0.0,0.0,83,0.00,,,0.00,Wunderground v.1.12,2013-01-08 23:05:00,
2013-01-08 16:15:00,34.5,30.5,30.03,North,0,0.0,0.0,85,0.00,,,0.00,Wunderground v.1.12,2013-01-08 23:15:00,
2013-01-08 16:20:00,34.6,30.6,30.03,North,0,0.0,0.0,85,0.00,,,0.00,Wunderground v.1.12,2013-01-08 23:20:00,
2013-01-08 16:25:00,34.4,30.4,30.03,North,0,0.0,0.0,85,0.00,,,0.00,Wunderground v.1.12,2013-01-08 23:25:00,
2013-01-08 16:30:00,34.3,30.5,30.03,North,0,0.0,0.0,86,0.00,,,0.00,Wunderground v.1.12,2013-01-08 23:30:00,
2013-01-08 16:35:00,34.5,31.0,30.03,North,0,0.0,0.0,87,0.00,,,0.00,Wunderground v.1.12,2013-01-08 23:35:00,
2013-01-08 16:45:00,33.9,30.7,30.02,North,0,0.0,0.0,88,0.00,,,0.00,Wunderground v.1.12,2013-01-08 23:45:00,
2013-01-08 16:50:00,33.8,30.6,30.01,North,0,0.0,0.0,88,0.00,,,0.00,Wunderground v.1.12,2013-01-08 23:50:00,
2013-01-08 16:55:00,34.1,30.9,30.02,North,0,0.0,0.0,88,0.00,,,0.00,Wunderground v.1.12,2013-01-08 23:55:00,
2013-01-08 17:00:00,33.8,31.2,30.01,North,0,0.0,0.0,90,0.00,,,0.00,Wunderground v.1.12,2013-01-09 00:00:00,
2013-01-08 17:05:00,33.4,30.8,30.01,North,0,0.0,0.0,90,0.00,,,0.00,Wunderground v.1.12,2013-01-09 00:05:00,
2013-01-08 17:10:00,33.3,30.7,30.01,North,0,0.0,0.0,90,0.00,,,0.00,Wunderground v.1.12,2013-01-09 00:10:00,
2013-01-08 17:20:00,33.3,31.0,30.00,North,0,0.0,0.0,91,0.00,,,0.00,Wunderground v.1.12,2013-01-09 00:20:00,
2013-01-08 17:25:00,33.5,31.2,30.00,North,0,0.0,0.0,91,0.00,,,0.00,Wunderground v.1.12,2013-01-09 00:25:00,
2013-01-08 17:30:00,33.2,30.9,30.00,North,0,0.0,0.0,91,0.00,,,0.00,Wunderground v.1.12,2013-01-09 00:30:00,
2013-01-08 17:35:00,33.4,31.1,30.00,North,0,0.0,0.0,91,0.00,,,0.00,Wunderground v.1.12,2013-01-09 00:35:00,
2013-01-08 17:40:00,33.0,30.9,30.00,North,0,0.0,0.0,92,0.00,,,0.00,Wunderground v.1.12,2013-01-09 00:40:00,
2013-01-08 17:50:00,33.2,31.1,29.99,North,0,0.0,0.0,92,0.00,,,0.00,Wunderground v.1.12,2013-01-09 00:50:00,
2013-01-08 17:55:00,33.0,30.9,29.98,North,0,0.0,0.0,92,0.00,,,0.00,Wunderground v.1.12,2013-01-09 00:55:00,
2013-01-08 18:00:00,33.1,31.0,29.98,North,0,0.0,0.0,92,0.00,,,0.00,Wunderground v.1.12,2013-01-09 01:00:00,
2013-01-08 18:05:00,33.2,31.1,29.99,North,0,0.0,0.0,92,0.00,,,0.00,Wunderground v.1.12,2013-01-09 01:05:00,
2013-01-08 18:10:00,32.7,30.6,29.98,North,0,0.0,0.0,92,0.00,,,0.00,Wunderground v.1.12,2013-01-09 01:10:00,
2013-01-08 18:20:00,32.7,30.6,29.98,North,0,0.0,0.0,92,0.00,,,0.00,Wunderground v.1.12,2013-01-09 01:20:00,
2013-01-08 18:25:00,32.5,30.4,29.98,North,0,0.0,0.0,92,0.00,,,0.00,Wunderground v.1.12,2013-01-09 01:25:00,
2013-01-08 18:30:00,33.0,30.9,29.97,North,0,0.0,0.0,92,0.00,,,0.00,Wunderground v.1.12,2013-01-09 01:30:00,
2013-01-08 18:35:00,32.5,30.4,29.97,North,0,0.0,0.0,92,0.00,,,0.00,Wunderground v.1.12,2013-01-09 01:35:00,
2013-01-08 18:40:00,32.8,31.0,29.98,North,0,0.0,0.0,93,0.00,,,0.00,Wunderground v.1.12,2013-01-09 01:40:00,
2013-01-08 18:45:00,32.8,31.0,29.97,North,0,0.0,0.0,93,0.00,,,0.00,Wunderground v.1.12,2013-01-09 01:45:00,
2013-01-08 18:50:00,32.8,31.0,29.97,North,0,0.0,0.0,93,0.00,,,0.00,Wunderground v.1.12,2013-01-09 01:50:00,
2013-01-08 18:55:00,32.7,30.9,29.97,North,0,0.0,0.0,93,0.00,,,0.00,Wunderground v.1.12,2013-01-09 01:55:00,
2013-01-08 19:00:00,32.3,30.5,29.97,North,0,0.0,0.0,93,0.00,,,0.00,Wunderground v.1.12,2013-01-09 02:00:00,
2013-01-08 19:05:00,32.6,30.8,29.97,North,0,0.0,0.0,93,0.00,,,0.00,Wunderground v.1.12,2013-01-09 02:05:00,
2013-01-08 19:10:00,32.4,30.6,29.97,North,0,0.0,0.0,93,0.00,,,0.00,Wunderground v.1.12,2013-01-09 02:10:00,
2013-01-08 19:15:00,32.4,30.6,29.97,North,0,0.0,0.0,93,0.00,,,0.00,Wunderground v.1.12,2013-01-09 02:15:00,
2013-01-08 19:25:00,32.5,31.0,29.97,North,0,0.0,0.0,94,0.00,,,0.00,Wunderground v.1.12,2013-01-09 02:25:00,
2013-01-08 19:30:00,32.5,31.0,29.97,North,0,0.0,0.0,94,0.00,,,0.00,Wunderground v.1.12,2013-01-09 02:30:00,
2013-01-08 19:40:00,32.2,30.7,29.96,North,0,0.0,0.0,94,0.00,,,0.00,Wunderground v.1.12,2013-01-09 02:40:00,
2013-01-08 19:45:00,32.5,31.0,29.96,North,0,0.0,0.0,94,0.00,,,0.00,Wunderground v.1.12,2013-01-09 02:45:00,
2013-01-08 19:50:00,32.2,30.7,29.96,North,0,0.0,0.0,94,0.00,,,0.00,Wunderground v.1.12,2013-01-09 02:50:00,
2013-01-08 19:55:00,32.1,30.6,29.96,North,0,0.0,0.0,94,0.00,,,0.00,Wunderground v.1.12,2013-01-09 02:55:00,
2013-01-08 20:00:00,32.4,30.9,29.95,North,0,0.0,0.0,94,0.00,,,0.00,Wunderground v.1.12,2013-01-09 03:00:00,
2013-01-08 20:05:00,32.6,31.1,29.95,North,0,0.0,0.0,94,0.00,,,0.00,Wunderground v.1.12,2013-01-09 03:05:00,
2013-01-08 20:10:00,32.4,30.9,29.95,North,0,0.0,0.0,94,0.00,,,0.00,Wunderground v.1.12,2013-01-09 03:10:00,
2013-01-08 20:15:00,32.4,30.9,29.95,North,0,0.0,0.0,94,0.00,,,0.00,Wunderground v.1.12,2013-01-09 03:15:00,
2013-01-08 20:25:00,32.1,30.8,29.94,North,0,0.0,0.0,95,0.00,,,0.00,Wunderground v.1.12,2013-01-09 03:25:00,
2013-01-08 20:35:00,32.4,31.1,29.94,North,0,0.0,0.0,95,0.00,,,0.00,Wunderground v.1.12,2013-01-09 03:35:00,
2013-01-08 20:40:00,32.0,30.7,29.94,North,0,0.0,0.0,95,0.00,,,0.00,Wunderground v.1.12,2013-01-09 03:40:00,
2013-01-08 20:50:00,32.6,31.3,29.94,North,0,0.0,0.0,95,0.00,,,0.00,Wunderground v.1.12,2013-01-09 03:50:00,
2013-01-08 20:55:00,32.1,30.8,29.93,North,0,0.0,0.0,95,0.00,,,0.00,Wunderground v.1.12,2013-01-09 03:55:00,
2013-01-08 21:00:00,32.2,30.9,29.93,North,0,0.0,0.0,95,0.00,,,0.00,Wunderground v.1.12,2013-01-09 04:00:00,
2013-01-08 21:10:00,32.5,31.2,29.93,North,0,0.0,0.0,95,0.00,,,0.00,Wunderground v.1.12,2013-01-09 04:10:00,
2013-01-08 21:15:00,32.3,31.0,29.93,North,0,0.0,0.0,95,0.00,,,0.00,Wunderground v.1.12,2013-01-09 04:15:00,
2013-01-08 21:20:00,32.3,31.0,29.93,North,0,0.0,0.0,95,0.00,,,0.00,Wunderground v.1.12,2013-01-09 04:20:00,
2013-01-08 21:25:00,32.1,30.8,29.93,North,0,0.0,0.0,95,0.00,,,0.00,Wunderground v.1.12,2013-01-09 04:25:00,
2013-01-08 21:35:00,32.2,30.9,29.93,North,0,0.0,0.0,95,0.00,,,0.00,Wunderground v.1.12,2013-01-09 04:35:00,
2013-01-08 21:45:00,32.1,30.8,29.93,North,0,0.0,0.0,95,0.00,,,0.00,Wunderground v.1.12,2013-01-09 04:45:00,
2013-01-08 21:50:00,32.0,30.7,29.93,North,0,0.0,0.0,95,0.00,,,0.00,Wunderground v.1.12,2013-01-09 04:50:00,
2013-01-08 21:55:00,32.4,31.1,29.93,North,0,0.0,0.0,95,0.00,,,0.00,Wunderground v.1.12,2013-01-09 04:55:00,
2013-01-08 22:05:00,32.2,31.2,29.91,N/A,-737280,0.0,0.0,96,0.00,,,0.00,Wunderground v.1.12,2013-01-09 05:05:00,
2013-01-08 22:10:00,32.2,30.9,29.93,North,0,0.0,0.0,95,0.00,,,0.00,Wunderground v.1.12,2013-01-09 05:10:00,
2013-01-08 22:15:00,32.2,31.2,29.92,North,0,0.0,0.0,96,0.00,,,0.00,Wunderground v.1.12,2013-01-09 05:15:00,
2013-01-08 22:20:00,32.0,31.0,29.92,North,0,0.0,0.0,96,0.00,,,0.00,Wunderground v.1.12,2013-01-09 05:20:00,
2013-01-08 22:30:00,32.4,31.4,29.92,North,0,0.0,0.0,96,0.00,,,0.00,Wunderground v.1.12,2013-01-09 05:30:00,
2013-01-08 22:35:00,32.2,31.2,29.92,North,0,0.0,0.0,96,0.00,,,0.00,Wunderground v.1.12,2013-01-09 05:35:00,
2013-01-08 22:40:00,31.9,30.9,29.92,North,0,0.0,0.0,96,0.00,,,0.00,Wunderground v.1.12,2013-01-09 05:40:00,
2013-01-08 22:50:00,32.0,31.0,29.92,North,0,0.0,0.0,96,0.00,,,0.00,Wunderground v.1.12,2013-01-09 05:50:00,
2013-01-08 23:00:00,31.9,30.9,29.92,North,0,0.0,0.0,96,0.00,,,0.00,Wunderground v.1.12,2013-01-09 06:00:00,
2013-01-08 23:05:00,32.3,31.3,29.92,North,0,0.0,0.0,96,0.00,,,0.00,Wunderground v.1.12,2013-01-09 06:05:00,
2013-01-08 23:10:00,32.4,31.4,29.92,North,0,0.0,0.0,96,0.00,,,0.00,Wunderground v.1.12,2013-01-09 06:10:00,
2013-01-08 23:20:00,32.1,31.1,29.91,North,0,0.0,0.0,96,0.00,,,0.00,Wunderground v.1.12,2013-01-09 06:20:00,
2013-01-08 23:25:00,32.0,31.2,29.91,North,0,0.0,0.0,97,0.00,,,0.00,Wunderground v.1.12,2013-01-09 06:25:00,
2013-01-08 23:30:00,32.0,31.0,29.91,North,0,0.0,0.0,96,0.00,,,0.00,Wunderground v.1.12,2013-01-09 06:30:00,
2013-01-08 23:40:00,32.3,31.3,29.91,North,0,0.0,0.0,96,0.00,,,0.00,Wunderground v.1.12,2013-01-09 06:40:00,
2013-01-08 23:45:00,32.3,31.3,29.91,North,0,0.0,0.0,96,0.00,,,0.00,Wunderground v.1.12,2013-01-09 06:45:00,
2013-01-08 23:50:00,32.0,31.0,29.91,North,0,0.0,0.0,96,0.00,,,0.00,Wunderground v.1.12,2013-01-09 06:50:00,
2013-01-08 23:55:00,32.2,31.4,29.91,North,0,0.0,0.0,97,0.00,,,0.00,Wunderground v.1.12,2013-01-09 06:55:00,